Time;durP1;ratioP1;P1;durP2;ratioP2;P2;SDS_P1;SDS_P2;PMS_P1;PMS_P2;Temp;Humidity;BMP_temperature;BMP_pressure;BME280_temperature;BME280_humidity;BME280_pressure;Samples;Min_cycle;Max_cycle;Signal;HPM_P1;HPM_P2
2023/04/11 00:01:06;;;;;;;;;;;9.60;99.90;;;;;;5005540;28;19914;-62
2023/04/11 00:03:31;;;;;;;;;;;9.60;99.90;;;;;;5003147;28;19924;-63
2023/04/11 00:05:57;;;;;;;;;;;9.60;99.90;;;;;;5006948;28;19921;-63
2023/04/11 00:08:22;;;;;;;;;;;9.60;99.90;;;;;;5006291;28;19918;-64
2023/04/11 00:10:48;;;;;;;;;;;9.60;99.90;;;;;;5027717;28;20541;-61
2023/04/11 00:13:13;;;;;;;;;;;9.60;99.90;;;;;;5009535;28;19982;-62
2023/04/11 00:15:39;;;;;;;;;;;9.60;99.90;;;;;;5007164;28;19914;-61
2023/04/11 00:18:05;;;;;;;;;;;9.60;99.90;;;;;;5007812;28;20396;-62
2023/04/11 00:20:31;;;;;;;;;;;9.70;99.90;;;;;;5007373;28;19913;-62
2023/04/11 00:22:57;;;;;;;;;;;9.70;99.90;;;;;;5007504;28;20284;-63
2023/04/11 00:25:22;;;;;;;;;;;9.90;99.90;;;;;;5009593;28;19972;-59
2023/04/11 00:27:48;;;;;;;;;;;9.90;99.90;;;;;;5009753;28;19957;-62
2023/04/11 00:30:14;;;;;;;;;;;9.90;99.90;;;;;;5005238;28;19914;-63
2023/04/11 00:32:39;;;;;;;;;;;9.90;99.90;;;;;;5007057;28;19996;-64
2023/04/11 00:35:05;;;;;;;;;;;10.00;99.90;;;;;;5009438;28;19918;-62
2023/04/11 00:37:34;;;;;;;;;;;10.10;99.90;;;;;;5005461;28;19918;-61
2023/04/11 00:40:00;;;;;;;;;;;10.10;99.90;;;;;;5004051;28;20292;-64
2023/04/11 00:42:26;;;;;;;;;;;10.00;99.90;;;;;;5011288;28;19914;-62
2023/04/11 00:44:51;;;;;;;;;;;10.00;99.90;;;;;;5012322;28;20209;-64
2023/04/11 00:47:17;;;;;;;;;;;9.90;99.90;;;;;;5007759;28;19980;-64
2023/04/11 00:49:42;;;;;;;;;;;10.00;99.90;;;;;;5009903;28;19928;-59
2023/04/11 00:52:08;;;;;;;;;;;9.90;99.90;;;;;;5009799;28;19917;-65
2023/04/11 00:54:34;;;;;;;;;;;9.90;99.90;;;;;;5012497;28;20000;-60
2023/04/11 00:57:00;;;;;;;;;;;10.00;99.90;;;;;;5012275;28;19930;-62
2023/04/11 00:59:26;;;;;;;;;;;10.10;99.90;;;;;;5009738;28;20015;-64
2023/04/11 01:01:52;;;;;;;;;;;10.20;99.90;;;;;;5007137;28;20339;-63
2023/04/11 01:04:17;;;;;;;;;;;10.30;99.90;;;;;;5008775;28;19914;-64
2023/04/11 01:06:46;;;;;;;;;;;10.20;99.90;;;;;;5012714;28;20379;-59
2023/04/11 01:09:11;;;;;;;;;;;10.30;99.90;;;;;;5006652;28;19925;-62
2023/04/11 01:11:37;;;;;;;;;;;10.20;99.90;;;;;;5010137;28;19921;-62
2023/04/11 01:14:02;;;;;;;;;;;10.20;99.90;;;;;;5011984;28;19948;-63
2023/04/11 01:16:28;;;;;;;;;;;10.30;99.90;;;;;;5008947;28;19920;-62
2023/04/11 01:18:53;;;;;;;;;;;10.30;99.90;;;;;;5012062;28;19913;-64
2023/04/11 01:21:19;;;;;;;;;;;10.40;99.90;;;;;;5009877;28;20023;-65
2023/04/11 01:23:47;;;;;;;;;;;10.40;99.90;;;;;;5010268;28;19921;-65
2023/04/11 01:26:13;;;;;;;;;;;10.30;99.90;;;;;;5008002;28;20391;-65
2023/04/11 01:28:39;;;;;;;;;;;10.30;99.90;;;;;;5010202;28;19921;-64
2023/04/11 01:31:05;;;;;;;;;;;10.30;99.90;;;;;;5009376;28;19922;-62
2023/04/11 01:33:31;;;;;;;;;;;10.20;99.90;;;;;;5006723;28;20949;-61
2023/04/11 01:35:56;;;;;;;;;;;10.30;99.90;;;;;;5011001;28;19914;-62
2023/04/11 01:38:22;;;;;;;;;;;10.30;99.90;;;;;;5009457;28;20391;-62
2023/04/11 01:40:47;;;;;;;;;;;10.20;99.90;;;;;;5007843;28;19918;-61
2023/04/11 01:43:13;;;;;;;;;;;10.20;99.90;;;;;;5009103;28;19917;-61
2023/04/11 01:45:38;;;;;;;;;;;10.20;99.90;;;;;;5007201;28;19918;-63
2023/04/11 01:48:05;;;;;;;;;;;10.30;99.90;;;;;;5009460;28;20045;-62
2023/04/11 01:50:30;;;;;;;;;;;10.20;99.90;;;;;;5009815;28;19924;-64
2023/04/11 01:52:56;;;;;;;;;;;10.20;99.90;;;;;;5009516;28;20281;-62
2023/04/11 01:55:21;;;;;;;;;;;10.20;99.90;;;;;;5010667;28;19972;-62
2023/04/11 01:57:47;;;;;;;;;;;10.10;99.90;;;;;;5009980;28;19921;-64
2023/04/11 02:00:12;;;;;;;;;;;10.10;99.90;;;;;;5006885;28;19917;-62
2023/04/11 02:02:38;;;;;;;;;;;10.00;99.90;;;;;;5009887;28;19941;-62
2023/04/11 02:05:03;;;;;;;;;;;10.00;99.90;;;;;;5008136;28;20350;-62
2023/04/11 02:07:29;;;;;;;;;;;9.90;99.90;;;;;;5010923;28;20004;-63
2023/04/11 02:09:55;;;;;;;;;;;10.00;99.90;;;;;;5009188;28;20334;-61
2023/04/11 02:12:21;;;;;;;;;;;10.00;99.90;;;;;;5010898;28;19917;-62
2023/04/11 02:14:48;;;;;;;;;;;10.00;99.90;;;;;;5010517;28;19920;-62
2023/04/11 02:17:13;;;;;;;;;;;10.00;99.90;;;;;;5008715;28;19914;-61
2023/04/11 02:19:40;;;;;;;;;;;9.90;99.90;;;;;;5005220;28;20359;-60
2023/04/11 02:22:06;;;;;;;;;;;9.80;99.90;;;;;;5011696;28;19937;-62
2023/04/11 02:24:32;;;;;;;;;;;9.80;99.90;;;;;;5008899;28;19913;-60
2023/04/11 02:26:59;;;;;;;;;;;9.80;99.90;;;;;;5009924;28;20402;-61
2023/04/11 02:29:25;;;;;;;;;;;9.80;99.90;;;;;;5007787;28;19917;-62
2023/04/11 02:31:50;;;;;;;;;;;9.80;99.90;;;;;;5009056;28;20051;-61
2023/04/11 02:34:16;;;;;;;;;;;9.70;99.90;;;;;;5007270;28;19913;-61
2023/04/11 02:36:42;;;;;;;;;;;9.70;99.90;;;;;;5008299;28;19980;-62
2023/04/11 02:39:08;;;;;;;;;;;9.70;99.90;;;;;;5009328;28;19929;-61
2023/04/11 02:41:37;;;;;;;;;;;9.70;99.90;;;;;;5007009;28;19913;-61
2023/04/11 02:44:02;;;;;;;;;;;9.70;99.90;;;;;;5007223;28;19919;-63
2023/04/11 02:46:28;;;;;;;;;;;9.70;99.90;;;;;;5009123;28;19913;-62
2023/04/11 02:48:53;;;;;;;;;;;9.70;99.90;;;;;;5006055;28;20323;-63
2023/04/11 02:51:19;;;;;;;;;;;9.70;99.90;;;;;;5007535;28;20017;-62
2023/04/11 02:53:44;;;;;;;;;;;9.80;99.90;;;;;;5008537;28;19921;-62
2023/04/11 02:56:09;;;;;;;;;;;9.80;99.90;;;;;;5009752;28;20387;-62
2023/04/11 02:58:37;;;;;;;;;;;9.70;99.90;;;;;;5006896;28;19921;-60
2023/04/11 03:01:04;;;;;;;;;;;9.70;99.90;;;;;;5009026;28;19914;-60
2023/04/11 03:03:30;;;;;;;;;;;9.70;99.90;;;;;;5007998;28;19922;-61
2023/04/11 03:05:55;;;;;;;;;;;9.70;99.90;;;;;;5010889;28;20050;-62
2023/04/11 03:08:21;;;;;;;;;;;9.70;99.90;;;;;;5010676;28;20004;-62
2023/04/11 03:10:47;;;;;;;;;;;9.60;99.90;;;;;;5011087;28;19972;-62
2023/04/11 03:13:12;;;;;;;;;;;9.60;99.90;;;;;;5008322;28;19914;-61
2023/04/11 03:15:37;;;;;;;;;;;9.60;99.90;;;;;;5005532;28;19917;-60
2023/04/11 03:18:03;;;;;;;;;;;9.50;99.90;;;;;;5008488;28;19931;-60
2023/04/11 03:20:28;;;;;;;;;;;9.50;99.90;;;;;;5006310;28;19957;-61
2023/04/11 03:22:54;;;;;;;;;;;9.50;99.90;;;;;;5009745;28;20376;-62
2023/04/11 03:25:20;;;;;;;;;;;9.50;99.90;;;;;;5011231;28;19921;-61
2023/04/11 03:27:45;;;;;;;;;;;9.50;99.90;;;;;;5008207;28;19925;-61
2023/04/11 03:30:12;;;;;;;;;;;9.40;99.90;;;;;;5005064;28;19917;-63
2023/04/11 03:32:37;;;;;;;;;;;9.40;99.90;;;;;;5008337;28;20391;-62
2023/04/11 03:35:03;;;;;;;;;;;9.40;99.90;;;;;;5010006;28;19914;-61
2023/04/11 03:37:28;;;;;;;;;;;9.40;99.90;;;;;;5006534;28;19921;-61
2023/04/11 03:39:54;;;;;;;;;;;9.40;99.90;;;;;;5008356;28;20641;-61
2023/04/11 03:42:20;;;;;;;;;;;9.30;99.90;;;;;;5003812;28;19936;-59
2023/04/11 03:44:45;;;;;;;;;;;9.30;99.90;;;;;;5006655;28;19922;-62
2023/04/11 03:47:10;;;;;;;;;;;9.20;99.90;;;;;;5006582;28;20506;-61
2023/04/11 03:49:36;;;;;;;;;;;9.20;99.90;;;;;;5007159;28;20299;-61
2023/04/11 03:52:01;;;;;;;;;;;9.30;99.90;;;;;;5007910;28;19936;-61
2023/04/11 03:54:27;;;;;;;;;;;9.30;99.90;;;;;;5008211;28;19918;-58
2023/04/11 03:56:52;;;;;;;;;;;9.30;99.90;;;;;;5006783;28;20402;-61
2023/04/11 03:59:18;;;;;;;;;;;9.40;99.90;;;;;;5006182;28;19976;-59
2023/04/11 04:01:43;;;;;;;;;;;9.40;99.90;;;;;;5006806;28;19921;-61
2023/04/11 04:04:09;;;;;;;;;;;9.30;99.90;;;;;;5007285;28;19914;-61
2023/04/11 04:06:34;;;;;;;;;;;9.30;99.90;;;;;;5008376;28;19917;-60
2023/04/11 04:09:00;;;;;;;;;;;9.30;99.90;;;;;;5007049;28;19924;-61
2023/04/11 04:11:25;;;;;;;;;;;9.20;99.90;;;;;;5008611;28;19913;-59
2023/04/11 04:13:51;;;;;;;;;;;9.20;99.90;;;;;;5001646;28;19928;-61
2023/04/11 04:16:16;;;;;;;;;;;9.30;99.90;;;;;;5009172;28;19920;-59
2023/04/11 04:18:42;;;;;;;;;;;9.30;99.90;;;;;;5005955;28;20028;-59
2023/04/11 04:21:07;;;;;;;;;;;9.30;99.90;;;;;;5006599;28;19983;-60
2023/04/11 04:23:34;;;;;;;;;;;9.30;99.90;;;;;;5007468;28;19924;-61
2023/04/11 04:26:01;;;;;;;;;;;9.30;99.90;;;;;;5005470;28;19913;-61
2023/04/11 04:28:27;;;;;;;;;;;9.30;99.90;;;;;;5004187;28;19968;-62
2023/04/11 04:30:53;;;;;;;;;;;9.30;99.90;;;;;;5007786;28;19914;-61
2023/04/11 04:33:21;;;;;;;;;;;9.30;99.90;;;;;;5004660;28;19917;-61
2023/04/11 04:35:47;;;;;;;;;;;9.30;99.90;;;;;;5008546;28;19917;-61
2023/04/11 04:38:16;;;;;;;;;;;9.30;99.90;;;;;;5006875;28;19924;-60
2023/04/11 04:40:42;;;;;;;;;;;9.30;99.90;;;;;;5007408;28;20395;-63
2023/04/11 04:43:10;;;;;;;;;;;9.30;99.90;;;;;;5008357;28;19960;-62
2023/04/11 04:45:35;;;;;;;;;;;9.20;99.90;;;;;;5009544;28;20347;-59
2023/04/11 04:48:01;;;;;;;;;;;9.20;99.90;;;;;;5001151;28;19917;-62
2023/04/11 04:50:26;;;;;;;;;;;9.20;99.90;;;;;;5007050;28;19914;-64
2023/04/11 04:52:52;;;;;;;;;;;9.20;99.90;;;;;;5007914;28;20009;-60
2023/04/11 04:55:17;;;;;;;;;;;9.30;99.90;;;;;;5007006;28;19914;-62
2023/04/11 04:57:43;;;;;;;;;;;9.30;99.90;;;;;;5008950;28;19917;-62
2023/04/11 05:00:10;;;;;;;;;;;9.30;99.90;;;;;;5008665;28;19914;-61
2023/04/11 05:02:36;;;;;;;;;;;9.30;99.90;;;;;;5006499;28;19922;-59
2023/04/11 05:05:03;;;;;;;;;;;9.30;99.90;;;;;;5009880;28;19913;-62
2023/04/11 05:07:28;;;;;;;;;;;9.30;99.90;;;;;;5008492;28;19972;-60
2023/04/11 05:09:54;;;;;;;;;;;9.30;99.90;;;;;;5006617;28;20303;-62
2023/04/11 05:12:25;;;;;;;;;;;9.30;99.90;;;;;;5006523;28;19913;-62
2023/04/11 05:14:51;;;;;;;;;;;9.30;99.90;;;;;;5006932;28;19968;-60
2023/04/11 05:17:17;;;;;;;;;;;9.30;99.90;;;;;;5002941;28;19936;-59
2023/04/11 05:19:42;;;;;;;;;;;9.20;99.90;;;;;;5008095;28;20364;-59
2023/04/11 05:22:08;;;;;;;;;;;9.30;99.90;;;;;;5007184;28;19924;-62
2023/04/11 05:24:33;;;;;;;;;;;9.30;99.90;;;;;;5005830;28;19975;-59
2023/04/11 05:26:59;;;;;;;;;;;9.30;99.90;;;;;;5008971;28;20402;-62
2023/04/11 05:29:24;;;;;;;;;;;9.30;99.90;;;;;;5011224;28;19971;-62
2023/04/11 05:31:50;;;;;;;;;;;9.30;99.90;;;;;;5010706;28;19918;-62
2023/04/11 05:34:15;;;;;;;;;;;9.30;99.90;;;;;;5012106;28;19920;-62
2023/04/11 05:36:41;;;;;;;;;;;9.30;99.90;;;;;;5010027;28;19921;-62
2023/04/11 05:39:06;;;;;;;;;;;9.20;99.90;;;;;;5010603;28;19921;-61
2023/04/11 05:41:32;;;;;;;;;;;9.20;99.90;;;;;;5010828;28;19913;-62
2023/04/11 05:43:57;;;;;;;;;;;9.30;99.90;;;;;;5009213;28;19913;-60
2023/04/11 05:46:23;;;;;;;;;;;9.30;99.90;;;;;;5005562;28;19919;-61
2023/04/11 05:48:49;;;;;;;;;;;9.30;99.90;;;;;;5012825;28;19924;-62
2023/04/11 05:51:14;;;;;;;;;;;9.30;99.90;;;;;;5010662;28;19914;-63
2023/04/11 05:53:40;;;;;;;;;;;9.30;99.90;;;;;;5012400;28;19917;-65
2023/04/11 05:56:06;;;;;;;;;;;9.30;99.90;;;;;;5016606;28;19976;-61
2023/04/11 05:58:32;;;;;;;;;;;9.30;99.90;;;;;;5012110;28;19918;-63
2023/04/11 06:00:58;;;;;;;;;;;9.30;99.90;;;;;;5009502;28;20442;-63
2023/04/11 06:03:24;;;;;;;;;;;9.30;99.90;;;;;;5009814;28;19926;-62
2023/04/11 06:05:49;;;;;;;;;;;9.40;99.90;;;;;;5009874;28;19960;-64
2023/04/11 06:08:16;;;;;;;;;;;9.40;99.90;;;;;;5010498;28;19928;-61
2023/04/11 06:10:41;;;;;;;;;;;9.40;99.90;;;;;;5013010;28;19910;-62
2023/04/11 06:13:07;;;;;;;;;;;9.40;99.90;;;;;;5010320;28;19920;-61
2023/04/11 06:15:32;;;;;;;;;;;9.30;99.90;;;;;;5011251;28;19914;-60
2023/04/11 06:17:57;;;;;;;;;;;9.40;99.90;;;;;;5010954;28;19914;-62
2023/04/11 06:20:23;;;;;;;;;;;9.40;99.90;;;;;;5011068;28;19913;-62
2023/04/11 06:22:52;;;;;;;;;;;9.50;99.90;;;;;;5009703;28;19960;-60
2023/04/11 06:25:19;;;;;;;;;;;9.50;99.90;;;;;;5010011;28;20514;-61
2023/04/11 06:27:44;;;;;;;;;;;9.50;99.90;;;;;;5006227;28;19926;-63
2023/04/11 06:30:10;;;;;;;;;;;9.60;99.90;;;;;;5008796;28;20468;-60
2023/04/11 06:32:35;;;;;;;;;;;9.60;99.90;;;;;;5009275;28;19921;-61
2023/04/11 06:35:01;;;;;;;;;;;9.70;99.90;;;;;;5008642;28;19943;-62
2023/04/11 06:37:26;;;;;;;;;;;9.80;99.90;;;;;;5013012;28;20306;-63
2023/04/11 06:39:51;;;;;;;;;;;9.80;99.90;;;;;;5008809;28;19913;-61
2023/04/11 06:42:17;;;;;;;;;;;9.80;99.90;;;;;;5007620;28;20287;-62
2023/04/11 06:44:43;;;;;;;;;;;9.90;99.90;;;;;;5008551;28;19917;-61
2023/04/11 06:47:09;;;;;;;;;;;9.80;99.90;;;;;;5011003;28;19920;-64
2023/04/11 06:49:34;;;;;;;;;;;9.80;99.90;;;;;;5009144;28;19933;-61
2023/04/11 06:52:00;;;;;;;;;;;9.80;99.90;;;;;;5001741;28;19913;-62
2023/04/11 06:54:25;;;;;;;;;;;9.90;99.90;;;;;;5007427;28;20395;-63
2023/04/11 06:56:51;;;;;;;;;;;9.90;99.90;;;;;;5008293;28;20274;-62
2023/04/11 06:59:20;;;;;;;;;;;10.00;99.90;;;;;;5009086;28;19948;-64
2023/04/11 07:01:45;;;;;;;;;;;10.00;99.90;;;;;;5001419;28;19921;-60
2023/04/11 07:04:11;;;;;;;;;;;10.00;99.90;;;;;;5005151;28;19971;-61
2023/04/11 07:06:36;;;;;;;;;;;10.00;99.90;;;;;;4998847;28;19917;-61
2023/04/11 07:09:02;;;;;;;;;;;10.10;99.90;;;;;;5006079;28;19924;-62
2023/04/11 07:11:28;;;;;;;;;;;10.10;99.90;;;;;;5010320;28;19957;-63
2023/04/11 07:13:53;;;;;;;;;;;10.20;99.90;;;;;;5008183;28;20000;-63
2023/04/11 07:16:19;;;;;;;;;;;10.20;99.90;;;;;;5009074;28;19921;-63
2023/04/11 07:18:44;;;;;;;;;;;10.20;99.90;;;;;;5005206;28;19914;-63
2023/04/11 07:21:11;;;;;;;;;;;10.10;99.90;;;;;;5007816;28;19921;-63
2023/04/11 07:23:37;;;;;;;;;;;10.10;99.90;;;;;;5010643;28;20512;-62
2023/04/11 07:26:02;;;;;;;;;;;10.10;99.90;;;;;;5006895;28;20280;-61
2023/04/11 07:28:30;;;;;;;;;;;10.20;99.90;;;;;;5006080;28;20284;-63
2023/04/11 07:30:56;;;;;;;;;;;10.20;99.90;;;;;;5003811;28;19940;-62
2023/04/11 07:33:22;;;;;;;;;;;10.20;99.90;;;;;;5006520;28;20008;-62
2023/04/11 07:35:47;;;;;;;;;;;10.20;99.90;;;;;;5003618;28;20012;-62
2023/04/11 07:38:14;;;;;;;;;;;10.30;99.90;;;;;;5008329;28;20374;-63
2023/04/11 07:40:39;;;;;;;;;;;10.40;99.90;;;;;;5005562;28;20012;-61
2023/04/11 07:43:05;;;;;;;;;;;10.50;99.90;;;;;;5012045;28;20007;-63
2023/04/11 07:45:32;;;;;;;;;;;10.60;99.90;;;;;;5008158;28;19932;-63
2023/04/11 07:47:57;;;;;;;;;;;10.70;99.90;;;;;;5004659;28;20040;-63
2023/04/11 07:50:23;;;;;;;;;;;10.80;99.90;;;;;;5001129;28;20512;-63
2023/04/11 07:52:50;;;;;;;;;;;10.70;99.90;;;;;;5004197;28;20000;-61
2023/04/11 07:55:15;;;;;;;;;;;10.60;99.90;;;;;;5004828;28;19913;-62
2023/04/11 07:57:41;;;;;;;;;;;10.70;99.90;;;;;;5007923;28;19954;-63
2023/04/11 08:00:08;;;;;;;;;;;10.80;99.90;;;;;;5004245;28;20368;-63
2023/04/11 08:02:34;;;;;;;;;;;10.80;99.90;;;;;;5004121;28;19913;-63
2023/04/11 08:05:00;;;;;;;;;;;10.80;99.90;;;;;;5004037;28;19913;-63
2023/04/11 08:07:25;;;;;;;;;;;10.80;99.90;;;;;;5005744;28;19913;-63
2023/04/11 08:09:51;;;;;;;;;;;10.70;99.90;;;;;;4994262;28;19925;-63
2023/04/11 08:12:16;;;;;;;;;;;10.70;99.90;;;;;;5003166;28;20626;-62
2023/04/11 08:14:41;;;;;;;;;;;10.70;99.90;;;;;;5005632;28;20379;-63
2023/04/11 08:17:07;;;;;;;;;;;10.80;99.90;;;;;;5005638;28;19913;-62
2023/04/11 08:19:32;;;;;;;;;;;10.90;99.90;;;;;;4997664;28;19913;-63
2023/04/11 08:21:58;;;;;;;;;;;11.00;99.90;;;;;;5007034;28;20012;-64
2023/04/11 08:24:23;;;;;;;;;;;10.90;99.90;;;;;;5006960;28;19913;-62
2023/04/11 08:26:49;;;;;;;;;;;10.80;99.90;;;;;;5000597;28;19983;-63
2023/04/11 08:29:14;;;;;;;;;;;10.90;99.90;;;;;;5002147;28;19983;-62
2023/04/11 08:31:43;;;;;;;;;;;11.00;99.90;;;;;;5003257;28;19928;-62
2023/04/11 08:34:09;;;;;;;;;;;11.10;99.90;;;;;;5001263;28;19985;-63
2023/04/11 08:36:34;;;;;;;;;;;11.20;99.90;;;;;;5004967;28;20008;-63
2023/04/11 08:39:00;;;;;;;;;;;11.00;99.90;;;;;;5006455;28;20847;-63
2023/04/11 08:41:29;;;;;;;;;;;11.00;99.90;;;;;;5005131;28;19980;-63
2023/04/11 08:43:55;;;;;;;;;;;11.00;99.90;;;;;;5006787;28;19914;-63
2023/04/11 08:46:20;;;;;;;;;;;11.20;99.90;;;;;;5004957;28;19917;-63
2023/04/11 08:48:46;;;;;;;;;;;11.10;99.90;;;;;;5003161;28;20001;-63
2023/04/11 08:51:13;;;;;;;;;;;11.20;99.90;;;;;;5004540;28;19921;-63
2023/04/11 08:53:39;;;;;;;;;;;11.30;99.90;;;;;;5008813;28;19924;-62
2023/04/11 08:56:05;;;;;;;;;;;11.40;99.90;;;;;;5013903;28;19918;-63
2023/04/11 08:58:31;;;;;;;;;;;11.30;99.90;;;;;;5011511;28;20202;-63
2023/04/11 09:01:12;;;;;;;;;;;11.40;99.90;;;;;;5004380;28;19928;-61
2023/04/11 09:03:48;;;;;;;;;;;11.40;99.90;;;;;;5009779;28;20387;-64
2023/04/11 09:06:14;;;;;;;;;;;11.30;99.90;;;;;;5009484;28;20524;-63
2023/04/11 09:08:39;;;;;;;;;;;11.30;99.90;;;;;;5009812;28;19995;-63
2023/04/11 09:11:05;;;;;;;;;;;11.30;99.90;;;;;;5013994;28;19924;-62
2023/04/11 09:13:30;;;;;;;;;;;11.50;99.90;;;;;;5007929;28;20004;-64
2023/04/11 09:16:05;;;;;;;;;;;11.70;99.90;;;;;;5010194;28;20024;-65
2023/04/11 09:18:32;;;;;;;;;;;11.90;99.90;;;;;;5012059;28;20443;-63
2023/04/11 09:20:58;;;;;;;;;;;12.20;99.90;;;;;;5006743;28;19918;-63
2023/04/11 09:23:24;;;;;;;;;;;12.10;99.90;;;;;;5006800;28;19932;-64
2023/04/11 09:25:49;;;;;;;;;;;12.00;99.90;;;;;;5006657;28;19914;-64
2023/04/11 09:28:15;;;;;;;;;;;12.00;99.90;;;;;;4999140;28;19990;-62
2023/04/11 09:30:47;;;;;;;;;;;11.90;99.90;;;;;;5005086;28;19914;-62
2023/04/11 09:33:31;;;;;;;;;;;11.90;99.90;;;;;;5004551;28;19917;-63
2023/04/11 09:35:56;;;;;;;;;;;12.10;99.90;;;;;;5002299;28;19913;-62
2023/04/11 09:38:28;;;;;;;;;;;12.30;99.90;;;;;;5007833;28;19936;-62
2023/04/11 09:40:54;;;;;;;;;;;12.10;99.90;;;;;;5009632;28;19921;-62
2023/04/11 09:43:19;;;;;;;;;;;12.00;99.90;;;;;;5010259;28;19913;-63
2023/04/11 09:45:45;;;;;;;;;;;12.40;99.90;;;;;;5006548;28;20450;-63
2023/04/11 09:48:11;;;;;;;;;;;12.50;99.90;;;;;;5009376;28;20015;-62
2023/04/11 09:50:37;;;;;;;;;;;12.60;99.90;;;;;;5004781;28;19921;-63
2023/04/11 09:53:04;;;;;;;;;;;12.80;99.90;;;;;;5009254;28;19924;-63
2023/04/11 09:55:31;;;;;;;;;;;12.60;99.90;;;;;;5003966;28;19929;-63
2023/04/11 09:57:57;;;;;;;;;;;12.60;99.90;;;;;;5005023;28;19945;-62
2023/04/11 10:00:23;;;;;;;;;;;12.80;99.90;;;;;;5010073;28;19913;-64
2023/04/11 10:02:51;;;;;;;;;;;13.00;99.90;;;;;;5005293;28;20426;-63
2023/04/11 10:05:18;;;;;;;;;;;13.00;99.90;;;;;;5004845;28;19934;-62
2023/04/11 10:08:03;;;;;;;;;;;13.20;99.90;;;;;;5005336;28;19925;-63
2023/04/11 10:10:29;;;;;;;;;;;13.10;99.90;;;;;;5007394;28;19920;-64
2023/04/11 10:12:54;;;;;;;;;;;13.00;99.90;;;;;;5006296;28;19913;-62
2023/04/11 10:15:21;;;;;;;;;;;13.00;99.90;;;;;;5010641;28;19948;-63
2023/04/11 10:18:06;;;;;;;;;;;13.50;99.90;;;;;;5005281;28;19941;-63
2023/04/11 10:20:37;;;;;;;;;;;13.70;99.90;;;;;;5004676;28;20008;-63
2023/04/11 10:23:03;;;;;;;;;;;13.60;99.90;;;;;;5009745;28;20338;-63
2023/04/11 10:25:29;;;;;;;;;;;13.90;99.90;;;;;;5009809;28;20331;-64
2023/04/11 10:28:00;;;;;;;;;;;13.80;99.90;;;;;;5012174;28;19967;-62
2023/04/11 10:30:57;;;;;;;;;;;13.70;99.90;;;;;;5008655;28;19972;-64
2023/04/11 10:33:25;;;;;;;;;;;13.60;99.90;;;;;;5007170;28;19914;-62
2023/04/11 10:35:57;;;;;;;;;;;13.80;99.90;;;;;;5007919;28;19913;-63
2023/04/11 10:38:47;;;;;;;;;;;13.80;99.90;;;;;;5006975;28;20387;-63
2023/04/11 10:41:15;;;;;;;;;;;14.30;99.90;;;;;;5009964;28;19913;-61
2023/04/11 10:43:41;;;;;;;;;;;14.60;98.90;;;;;;5006245;28;19924;-63
2023/04/11 10:46:17;;;;;;;;;;;14.60;96.40;;;;;;5005461;28;19914;-64
2023/04/11 10:49:03;;;;;;;;;;;14.40;95.40;;;;;;5003717;28;21143;-64
2023/04/11 10:51:30;;;;;;;;;;;14.70;96.90;;;;;;5011071;28;19913;-62
2023/04/11 10:53:59;;;;;;;;;;;14.20;95.90;;;;;;5009049;28;20289;-63
2023/04/11 10:56:45;;;;;;;;;;;13.80;96.70;;;;;;5005338;28;20008;-63
2023/04/11 10:59:29;;;;;;;;;;;13.60;96.60;;;;;;5008663;28;19951;-63
2023/04/11 11:01:55;;;;;;;;;;;13.90;96.20;;;;;;5007689;28;19960;-63
2023/04/11 11:04:34;;;;;;;;;;;14.20;96.40;;;;;;5004690;28;19921;-64
2023/04/11 11:07:00;;;;;;;;;;;14.20;92.70;;;;;;4999709;28;20447;-64
2023/04/11 11:09:27;;;;;;;;;;;14.50;94.00;;;;;;5007827;28;19923;-63
2023/04/11 11:12:08;;;;;;;;;;;14.50;94.50;;;;;;5007678;28;19917;-62
2023/04/11 11:14:34;;;;;;;;;;;14.70;94.80;;;;;;5003922;28;20315;-62
2023/04/11 11:16:59;;;;;;;;;;;14.90;94.40;;;;;;5007294;28;19914;-63
2023/04/11 11:19:25;;;;;;;;;;;14.70;94.90;;;;;;5005149;28;19917;-62
2023/04/11 11:21:51;;;;;;;;;;;14.70;95.30;;;;;;5007126;28;20447;-63
2023/04/11 11:24:23;;;;;;;;;;;14.70;93.80;;;;;;5006356;28;19993;-62
2023/04/11 11:26:49;;;;;;;;;;;14.90;93.40;;;;;;5010462;28;19913;-63
2023/04/11 11:29:15;;;;;;;;;;;14.80;94.00;;;;;;5009506;28;19925;-63
2023/04/11 11:31:44;;;;;;;;;;;15.10;94.30;;;;;;5006380;28;20010;-64
2023/04/11 11:34:09;;;;;;;;;;;15.40;92.20;;;;;;4999553;28;19913;-63
2023/04/11 11:36:37;;;;;;;;;;;15.20;91.00;;;;;;4998680;28;20388;-62
2023/04/11 11:39:04;;;;;;;;;;;15.00;91.50;;;;;;5003991;28;19914;-64
2023/04/11 11:41:30;;;;;;;;;;;14.50;91.40;;;;;;5009868;28;20481;-63
2023/04/11 11:43:56;;;;;;;;;;;14.40;92.80;;;;;;5006181;28;20280;-64
2023/04/11 11:46:21;;;;;;;;;;;14.10;92.00;;;;;;5008397;28;19918;-63
2023/04/11 11:48:57;;;;;;;;;;;13.70;91.70;;;;;;5000184;28;20674;-64
2023/04/11 11:51:22;;;;;;;;;;;14.00;91.50;;;;;;5005683;28;19913;-63
2023/04/11 11:54:08;;;;;;;;;;;14.50;90.90;;;;;;5009857;28;19940;-63
2023/04/11 11:56:38;;;;;;;;;;;15.00;90.90;;;;;;5010682;28;19913;-61
2023/04/11 11:59:04;;;;;;;;;;;15.10;86.80;;;;;;5005502;28;20404;-63
2023/04/11 12:01:36;;;;;;;;;;;15.40;87.60;;;;;;5006324;28;19993;-63
2023/04/11 12:04:04;;;;;;;;;;;15.50;87.30;;;;;;5009908;28;19940;-63
2023/04/11 12:06:30;;;;;;;;;;;15.40;87.00;;;;;;5009310;28;19917;-63
2023/04/11 12:09:02;;;;;;;;;;;15.80;89.20;;;;;;5007111;28;20376;-62
2023/04/11 12:11:34;;;;;;;;;;;15.30;87.60;;;;;;5009533;28;19980;-63
2023/04/11 12:14:00;;;;;;;;;;;15.00;89.80;;;;;;5006896;28;19982;-63
2023/04/11 12:16:25;;;;;;;;;;;15.10;88.40;;;;;;5002198;28;19913;-63
2023/04/11 12:18:51;;;;;;;;;;;15.40;85.70;;;;;;5007240;28;19917;-62
2023/04/11 12:21:16;;;;;;;;;;;15.80;83.90;;;;;;5006349;28;19917;-61
2023/04/11 12:23:42;;;;;;;;;;;16.10;83.90;;;;;;5008347;28;20020;-63
2023/04/11 12:26:07;;;;;;;;;;;16.30;84.10;;;;;;5002903;28;19914;-61
2023/04/11 12:28:33;;;;;;;;;;;16.50;83.50;;;;;;5006559;28;20008;-61
2023/04/11 12:30:58;;;;;;;;;;;16.10;83.30;;;;;;5006841;28;20265;-62
2023/04/11 12:33:24;;;;;;;;;;;16.10;82.50;;;;;;5005013;28;20474;-62
2023/04/11 12:35:49;;;;;;;;;;;16.50;84.20;;;;;;5006762;28;19917;-63
2023/04/11 12:38:14;;;;;;;;;;;16.70;80.70;;;;;;5011443;28;19914;-62
2023/04/11 12:40:40;;;;;;;;;;;16.80;83.00;;;;;;5009039;28;20410;-62
2023/04/11 12:43:05;;;;;;;;;;;16.40;80.30;;;;;;5009733;28;20348;-62
2023/04/11 12:45:32;;;;;;;;;;;16.70;82.10;;;;;;5011425;28;20414;-62
2023/04/11 12:47:57;;;;;;;;;;;16.60;82.30;;;;;;5010097;28;19917;-62
2023/04/11 12:50:23;;;;;;;;;;;16.60;81.90;;;;;;5008443;28;19920;-62
2023/04/11 12:52:48;;;;;;;;;;;16.20;80.60;;;;;;5007740;28;19921;-62
2023/04/11 12:55:13;;;;;;;;;;;16.20;81.30;;;;;;5010988;28;19913;-62
2023/04/11 12:57:39;;;;;;;;;;;16.40;80.20;;;;;;5014407;28;19917;-63
2023/04/11 13:00:05;;;;;;;;;;;16.90;83.20;;;;;;5012894;28;19917;-62
2023/04/11 13:02:31;;;;;;;;;;;16.90;79.90;;;;;;5008944;28;20442;-62
2023/04/11 13:04:58;;;;;;;;;;;17.30;82.00;;;;;;5009319;28;19921;-63
2023/04/11 13:07:23;;;;;;;;;;;17.40;77.70;;;;;;5015309;28;19914;-63
2023/04/11 13:09:49;;;;;;;;;;;16.90;77.70;;;;;;5010157;28;20320;-62
2023/04/11 13:12:14;;;;;;;;;;;16.90;79.80;;;;;;5012017;28;19921;-62
2023/04/11 13:14:40;;;;;;;;;;;17.10;81.00;;;;;;5013336;28;19922;-62
2023/04/11 13:17:05;;;;;;;;;;;16.60;78.10;;;;;;5011398;28;19996;-61
2023/04/11 13:19:31;;;;;;;;;;;16.70;80.10;;;;;;5010154;28;19928;-61
2023/04/11 13:21:56;;;;;;;;;;;17.00;76.30;;;;;;5013341;28;20016;-62
2023/04/11 13:24:22;;;;;;;;;;;17.20;76.00;;;;;;5012653;28;19918;-61
2023/04/11 13:26:47;;;;;;;;;;;16.30;75.40;;;;;;5013455;28;19913;-62
2023/04/11 13:29:13;;;;;;;;;;;16.00;79.10;;;;;;5004608;28;20322;-62
2023/04/11 13:31:38;;;;;;;;;;;16.00;80.00;;;;;;5010376;28;19917;-62
2023/04/11 13:34:04;;;;;;;;;;;15.60;81.50;;;;;;5009742;28;20391;-60
2023/04/11 13:36:31;;;;;;;;;;;15.50;82.40;;;;;;5011527;28;19917;-63
2023/04/11 13:38:57;;;;;;;;;;;15.20;78.20;;;;;;5008948;28;19913;-62
2023/04/11 13:41:22;;;;;;;;;;;15.00;81.10;;;;;;5009309;28;19918;-62
2023/04/11 13:43:49;;;;;;;;;;;15.10;84.10;;;;;;5013110;28;19914;-63
2023/04/11 13:46:15;;;;;;;;;;;15.60;85.60;;;;;;5011448;28;20016;-62
2023/04/11 13:48:41;;;;;;;;;;;15.80;83.70;;;;;;5007699;28;20534;-62
2023/04/11 13:51:07;;;;;;;;;;;16.00;84.00;;;;;;5001246;28;19918;-62
2023/04/11 13:53:32;;;;;;;;;;;16.00;81.50;;;;;;5003937;28;19921;-62
2023/04/11 13:55:57;;;;;;;;;;;15.60;82.00;;;;;;5008622;28;19979;-62
2023/04/11 13:58:23;;;;;;;;;;;15.80;83.20;;;;;;5002965;28;19913;-59
2023/04/11 14:00:49;;;;;;;;;;;15.80;82.90;;;;;;5006288;28;19999;-60
2023/04/11 14:03:15;;;;;;;;;;;16.00;83.50;;;;;;5003315;28;19924;-60
2023/04/11 14:05:40;;;;;;;;;;;15.60;82.50;;;;;;5003303;28;19918;-61
2023/04/11 14:08:06;;;;;;;;;;;15.80;83.20;;;;;;5006858;28;19999;-61
2023/04/11 14:10:31;;;;;;;;;;;16.00;83.10;;;;;;5006926;28;19921;-61
2023/04/11 14:12:57;;;;;;;;;;;16.20;83.20;;;;;;5005995;28;19924;-61
2023/04/11 14:15:22;;;;;;;;;;;16.30;81.40;;;;;;5006311;28;19921;-61
2023/04/11 14:17:48;;;;;;;;;;;16.60;81.20;;;;;;5004512;28;19926;-62